Aviation Digital Data Service (ADDS)

Output produced by METARs form (1209 UTC 26 March 2019)
found at http://www.aviationweather.gov/metar/data/
 
MBGT 261010Z 2612/2712 VRB02KT 9999 FEW018 
     BECMG 2618/2620 33008KT SCT018 
     BECMG 2704/2706 VRB02KT
       
MBPV 261010Z 2612/2712 VRB02KT 9999 FEW018 
     BECMG 2618/2620 33008KT SCT018 
     BECMG 2704/2706 VRB02KT